sensor_id;sensor_type;location;lat;lon;timestamp;P1;durP1;ratioP1;P2;durP2;ratioP2
32786;SDS011;19139;49.372;8.580;2023-09-12T00:00:45;14.13;;;9.83;;
32786;SDS011;19139;49.372;8.580;2023-09-12T00:03:12;12.97;;;10.53;;
32786;SDS011;19139;49.372;8.580;2023-09-12T00:05:39;15.67;;;9.17;;
32786;SDS011;19139;49.372;8.580;2023-09-12T00:08:06;10.90;;;9.13;;
32786;SDS011;19139;49.372;8.580;2023-09-12T00:10:33;13.10;;;9.83;;
32786;SDS011;19139;49.372;8.580;2023-09-12T00:12:59;11.87;;;9.13;;
32786;SDS011;19139;49.372;8.580;2023-09-12T00:15:28;13.80;;;9.23;;
32786;SDS011;19139;49.372;8.580;2023-09-12T00:17:55;13.50;;;10.00;;
32786;SDS011;19139;49.372;8.580;2023-09-12T00:20:22;10.27;;;9.23;;
32786;SDS011;19139;49.372;8.580;2023-09-12T00:22:49;13.47;;;9.33;;
32786;SDS011;19139;49.372;8.580;2023-09-12T00:25:16;12.10;;;9.87;;
32786;SDS011;19139;49.372;8.580;2023-09-12T00:27:42;12.10;;;9.63;;
32786;SDS011;19139;49.372;8.580;2023-09-12T00:30:09;12.30;;;9.10;;
32786;SDS011;19139;49.372;8.580;2023-09-12T00:32:36;10.60;;;8.67;;
32786;SDS011;19139;49.372;8.580;2023-09-12T00:35:03;12.60;;;9.07;;
32786;SDS011;19139;49.372;8.580;2023-09-12T00:37:30;12.10;;;8.87;;
32786;SDS011;19139;49.372;8.580;2023-09-12T00:39:56;16.03;;;9.83;;
32786;SDS011;19139;49.372;8.580;2023-09-12T00:42:26;12.73;;;8.67;;
32786;SDS011;19139;49.372;8.580;2023-09-12T00:44:53;12.97;;;9.47;;
32786;SDS011;19139;49.372;8.580;2023-09-12T00:47:20;14.07;;;10.03;;
32786;SDS011;19139;49.372;8.580;2023-09-12T00:49:48;10.67;;;9.17;;
32786;SDS011;19139;49.372;8.580;2023-09-12T00:52:22;11.03;;;9.13;;
32786;SDS011;19139;49.372;8.580;2023-09-12T00:54:53;13.17;;;9.20;;
32786;SDS011;19139;49.372;8.580;2023-09-12T00:57:20;12.77;;;9.20;;
32786;SDS011;19139;49.372;8.580;2023-09-12T00:59:48;13.00;;;8.93;;
32786;SDS011;19139;49.372;8.580;2023-09-12T01:02:15;11.90;;;9.30;;
32786;SDS011;19139;49.372;8.580;2023-09-12T01:04:43;13.83;;;9.20;;
32786;SDS011;19139;49.372;8.580;2023-09-12T01:07:10;12.33;;;9.30;;
32786;SDS011;19139;49.372;8.580;2023-09-12T01:09:37;13.93;;;9.07;;
32786;SDS011;19139;49.372;8.580;2023-09-12T01:12:04;12.67;;;9.47;;
32786;SDS011;19139;49.372;8.580;2023-09-12T01:14:31;16.17;;;9.87;;
32786;SDS011;19139;49.372;8.580;2023-09-12T01:16:58;14.30;;;9.43;;
32786;SDS011;19139;49.372;8.580;2023-09-12T01:19:25;12.60;;;9.93;;
32786;SDS011;19139;49.372;8.580;2023-09-12T01:24:45;14.03;;;10.93;;
32786;SDS011;19139;49.372;8.580;2023-09-12T01:27:30;15.90;;;9.57;;
32786;SDS011;19139;49.372;8.580;2023-09-12T01:30:09;15.23;;;10.60;;
32786;SDS011;19139;49.372;8.580;2023-09-12T01:32:36;15.60;;;10.53;;
32786;SDS011;19139;49.372;8.580;2023-09-12T01:35:05;13.60;;;9.40;;
32786;SDS011;19139;49.372;8.580;2023-09-12T01:37:32;15.53;;;10.50;;
32786;SDS011;19139;49.372;8.580;2023-09-12T01:39:59;12.47;;;10.47;;
32786;SDS011;19139;49.372;8.580;2023-09-12T01:42:28;15.63;;;9.70;;
32786;SDS011;19139;49.372;8.580;2023-09-12T01:44:57;13.87;;;9.43;;
32786;SDS011;19139;49.372;8.580;2023-09-12T01:47:25;14.40;;;9.63;;
32786;SDS011;19139;49.372;8.580;2023-09-12T01:49:54;14.70;;;9.80;;
32786;SDS011;19139;49.372;8.580;2023-09-12T01:52:24;11.17;;;9.73;;
32786;SDS011;19139;49.372;8.580;2023-09-12T01:54:52;13.23;;;9.67;;
32786;SDS011;19139;49.372;8.580;2023-09-12T01:57:19;13.30;;;9.60;;
32786;SDS011;19139;49.372;8.580;2023-09-12T01:59:50;14.80;;;8.47;;
32786;SDS011;19139;49.372;8.580;2023-09-12T02:02:17;12.43;;;8.93;;
32786;SDS011;19139;49.372;8.580;2023-09-12T02:07:35;12.60;;;9.77;;
32786;SDS011;19139;49.372;8.580;2023-09-12T02:10:04;15.80;;;10.27;;
32786;SDS011;19139;49.372;8.580;2023-09-12T02:12:31;14.43;;;9.27;;
32786;SDS011;19139;49.372;8.580;2023-09-12T02:14:58;16.53;;;9.57;;
32786;SDS011;19139;49.372;8.580;2023-09-12T02:17:25;13.83;;;9.83;;
32786;SDS011;19139;49.372;8.580;2023-09-12T02:19:52;15.47;;;9.43;;
32786;SDS011;19139;49.372;8.580;2023-09-12T02:22:18;10.77;;;9.23;;
32786;SDS011;19139;49.372;8.580;2023-09-12T02:24:45;11.97;;;10.43;;
32786;SDS011;19139;49.372;8.580;2023-09-12T02:27:12;15.33;;;10.70;;
32786;SDS011;19139;49.372;8.580;2023-09-12T02:29:39;13.13;;;8.83;;
32786;SDS011;19139;49.372;8.580;2023-09-12T02:32:07;12.43;;;8.50;;
32786;SDS011;19139;49.372;8.580;2023-09-12T02:34:34;10.73;;;9.50;;
32786;SDS011;19139;49.372;8.580;2023-09-12T02:37:01;14.17;;;9.60;;
32786;SDS011;19139;49.372;8.580;2023-09-12T02:39:27;14.97;;;9.83;;
32786;SDS011;19139;49.372;8.580;2023-09-12T02:41:54;10.60;;;8.80;;
32786;SDS011;19139;49.372;8.580;2023-09-12T02:44:21;13.27;;;9.10;;
32786;SDS011;19139;49.372;8.580;2023-09-12T02:46:47;11.57;;;9.77;;
32786;SDS011;19139;49.372;8.580;2023-09-12T02:49:14;12.90;;;9.07;;
32786;SDS011;19139;49.372;8.580;2023-09-12T02:51:41;11.47;;;8.90;;
32786;SDS011;19139;49.372;8.580;2023-09-12T02:54:08;13.10;;;9.63;;
32786;SDS011;19139;49.372;8.580;2023-09-12T02:56:35;12.47;;;9.83;;
32786;SDS011;19139;49.372;8.580;2023-09-12T02:59:02;15.27;;;9.03;;
32786;SDS011;19139;49.372;8.580;2023-09-12T03:01:28;12.90;;;9.73;;
32786;SDS011;19139;49.372;8.580;2023-09-12T03:03:55;11.63;;;10.17;;
32786;SDS011;19139;49.372;8.580;2023-09-12T03:06:24;14.93;;;10.67;;
32786;SDS011;19139;49.372;8.580;2023-09-12T03:08:51;14.60;;;9.43;;
32786;SDS011;19139;49.372;8.580;2023-09-12T03:11:18;19.00;;;11.30;;
32786;SDS011;19139;49.372;8.580;2023-09-12T03:13:45;12.17;;;10.57;;
32786;SDS011;19139;49.372;8.580;2023-09-12T03:16:13;13.93;;;10.37;;
32786;SDS011;19139;49.372;8.580;2023-09-12T03:18:40;13.47;;;11.37;;
32786;SDS011;19139;49.372;8.580;2023-09-12T03:21:07;14.20;;;10.50;;
32786;SDS011;19139;49.372;8.580;2023-09-12T03:23:34;15.60;;;11.07;;
32786;SDS011;19139;49.372;8.580;2023-09-12T03:26:04;11.97;;;9.30;;
32786;SDS011;19139;49.372;8.580;2023-09-12T03:28:32;11.43;;;10.30;;
32786;SDS011;19139;49.372;8.580;2023-09-12T03:33:37;12.77;;;10.13;;
32786;SDS011;19139;49.372;8.580;2023-09-12T03:36:07;14.47;;;10.23;;
32786;SDS011;19139;49.372;8.580;2023-09-12T03:38:35;12.73;;;10.00;;
32786;SDS011;19139;49.372;8.580;2023-09-12T03:41:02;14.87;;;10.30;;
32786;SDS011;19139;49.372;8.580;2023-09-12T03:43:29;15.20;;;11.03;;
32786;SDS011;19139;49.372;8.580;2023-09-12T03:45:56;16.90;;;9.93;;
32786;SDS011;19139;49.372;8.580;2023-09-12T03:48:23;20.13;;;11.60;;
32786;SDS011;19139;49.372;8.580;2023-09-12T03:50:50;15.73;;;10.20;;
32786;SDS011;19139;49.372;8.580;2023-09-12T03:53:17;15.47;;;11.23;;
32786;SDS011;19139;49.372;8.580;2023-09-12T03:55:44;11.73;;;9.67;;
32786;SDS011;19139;49.372;8.580;2023-09-12T03:58:11;13.13;;;9.27;;
32786;SDS011;19139;49.372;8.580;2023-09-12T04:00:37;15.10;;;10.70;;
32786;SDS011;19139;49.372;8.580;2023-09-12T04:03:04;11.10;;;9.40;;
32786;SDS011;19139;49.372;8.580;2023-09-12T04:05:31;13.27;;;9.13;;
32786;SDS011;19139;49.372;8.580;2023-09-12T04:07:58;11.77;;;8.67;;
32786;SDS011;19139;49.372;8.580;2023-09-12T04:10:24;11.50;;;9.47;;
32786;SDS011;19139;49.372;8.580;2023-09-12T04:12:51;9.97;;;8.80;;
32786;SDS011;19139;49.372;8.580;2023-09-12T04:15:18;12.20;;;9.07;;
32786;SDS011;19139;49.372;8.580;2023-09-12T04:17:45;12.47;;;8.43;;
32786;SDS011;19139;49.372;8.580;2023-09-12T04:20:11;15.40;;;9.57;;
32786;SDS011;19139;49.372;8.580;2023-09-12T04:22:44;12.00;;;8.77;;
32786;SDS011;19139;49.372;8.580;2023-09-12T04:25:11;11.90;;;8.00;;
32786;SDS011;19139;49.372;8.580;2023-09-12T04:27:37;15.33;;;9.13;;
32786;SDS011;19139;49.372;8.580;2023-09-12T04:30:04;11.13;;;8.17;;
32786;SDS011;19139;49.372;8.580;2023-09-12T04:32:31;11.13;;;8.30;;
32786;SDS011;19139;49.372;8.580;2023-09-12T04:34:58;10.20;;;8.23;;
32786;SDS011;19139;49.372;8.580;2023-09-12T04:37:25;10.10;;;8.83;;
32786;SDS011;19139;49.372;8.580;2023-09-12T04:39:52;12.43;;;8.53;;
32786;SDS011;19139;49.372;8.580;2023-09-12T04:42:18;10.80;;;8.57;;
32786;SDS011;19139;49.372;8.580;2023-09-12T04:44:45;15.27;;;8.73;;
32786;SDS011;19139;49.372;8.580;2023-09-12T04:47:12;13.13;;;8.53;;
32786;SDS011;19139;49.372;8.580;2023-09-12T04:49:39;11.00;;;7.70;;
32786;SDS011;19139;49.372;8.580;2023-09-12T04:52:06;13.53;;;9.30;;
32786;SDS011;19139;49.372;8.580;2023-09-12T04:54:33;15.33;;;9.13;;
32786;SDS011;19139;49.372;8.580;2023-09-12T04:56:59;10.17;;;8.53;;
32786;SDS011;19139;49.372;8.580;2023-09-12T04:59:26;14.53;;;8.20;;
32786;SDS011;19139;49.372;8.580;2023-09-12T05:01:52;13.13;;;8.87;;
32786;SDS011;19139;49.372;8.580;2023-09-12T05:04:19;15.90;;;9.40;;
32786;SDS011;19139;49.372;8.580;2023-09-12T05:06:46;10.60;;;8.37;;
32786;SDS011;19139;49.372;8.580;2023-09-12T05:09:13;14.70;;;8.33;;
32786;SDS011;19139;49.372;8.580;2023-09-12T05:11:40;13.27;;;8.43;;
32786;SDS011;19139;49.372;8.580;2023-09-12T05:14:07;13.97;;;8.37;;
32786;SDS011;19139;49.372;8.580;2023-09-12T05:16:34;12.00;;;8.13;;
32786;SDS011;19139;49.372;8.580;2023-09-12T05:19:00;11.53;;;8.23;;
32786;SDS011;19139;49.372;8.580;2023-09-12T05:21:27;13.00;;;8.57;;
32786;SDS011;19139;49.372;8.580;2023-09-12T05:23:54;12.77;;;8.60;;
32786;SDS011;19139;49.372;8.580;2023-09-12T05:26:21;13.53;;;9.10;;
32786;SDS011;19139;49.372;8.580;2023-09-12T05:28:47;13.07;;;9.00;;
32786;SDS011;19139;49.372;8.580;2023-09-12T05:31:14;15.23;;;9.40;;
32786;SDS011;19139;49.372;8.580;2023-09-12T05:33:41;11.10;;;9.17;;
32786;SDS011;19139;49.372;8.580;2023-09-12T05:36:07;14.63;;;8.83;;
32786;SDS011;19139;49.372;8.580;2023-09-12T05:38:34;15.13;;;9.27;;
32786;SDS011;19139;49.372;8.580;2023-09-12T05:41:01;12.23;;;9.40;;
32786;SDS011;19139;49.372;8.580;2023-09-12T05:43:28;15.27;;;9.27;;
32786;SDS011;19139;49.372;8.580;2023-09-12T05:45:54;14.07;;;9.27;;
32786;SDS011;19139;49.372;8.580;2023-09-12T05:48:23;13.20;;;9.07;;
32786;SDS011;19139;49.372;8.580;2023-09-12T05:50:50;14.70;;;8.93;;
32786;SDS011;19139;49.372;8.580;2023-09-12T05:53:17;13.10;;;8.93;;
32786;SDS011;19139;49.372;8.580;2023-09-12T05:55:43;15.93;;;9.60;;
32786;SDS011;19139;49.372;8.580;2023-09-12T05:58:11;12.33;;;8.97;;
32786;SDS011;19139;49.372;8.580;2023-09-12T06:00:37;11.63;;;9.13;;
32786;SDS011;19139;49.372;8.580;2023-09-12T06:03:04;12.47;;;9.27;;
32786;SDS011;19139;49.372;8.580;2023-09-12T06:05:31;13.27;;;9.07;;
32786;SDS011;19139;49.372;8.580;2023-09-12T06:07:58;11.80;;;8.33;;
32786;SDS011;19139;49.372;8.580;2023-09-12T06:10:25;15.70;;;9.53;;
32786;SDS011;19139;49.372;8.580;2023-09-12T06:12:52;13.50;;;8.43;;
32786;SDS011;19139;49.372;8.580;2023-09-12T06:15:19;13.03;;;9.53;;
32786;SDS011;19139;49.372;8.580;2023-09-12T06:17:46;12.93;;;10.13;;
32786;SDS011;19139;49.372;8.580;2023-09-12T06:20:13;20.30;;;11.83;;
32786;SDS011;19139;49.372;8.580;2023-09-12T06:22:39;12.93;;;9.87;;
32786;SDS011;19139;49.372;8.580;2023-09-12T06:25:06;11.03;;;9.37;;
32786;SDS011;19139;49.372;8.580;2023-09-12T06:27:33;16.60;;;10.53;;
32786;SDS011;19139;49.372;8.580;2023-09-12T06:30:00;15.03;;;9.90;;
32786;SDS011;19139;49.372;8.580;2023-09-12T06:32:27;13.70;;;10.07;;
32786;SDS011;19139;49.372;8.580;2023-09-12T06:34:53;11.23;;;9.73;;
32786;SDS011;19139;49.372;8.580;2023-09-12T06:37:20;14.03;;;9.93;;
32786;SDS011;19139;49.372;8.580;2023-09-12T06:39:50;15.87;;;10.50;;
32786;SDS011;19139;49.372;8.580;2023-09-12T06:42:17;17.30;;;9.57;;
32786;SDS011;19139;49.372;8.580;2023-09-12T06:44:44;16.40;;;10.33;;
32786;SDS011;19139;49.372;8.580;2023-09-12T06:47:11;15.87;;;10.13;;
32786;SDS011;19139;49.372;8.580;2023-09-12T06:49:37;17.97;;;11.07;;
32786;SDS011;19139;49.372;8.580;2023-09-12T06:52:04;15.27;;;10.13;;
32786;SDS011;19139;49.372;8.580;2023-09-12T06:54:32;16.03;;;9.67;;
32786;SDS011;19139;49.372;8.580;2023-09-12T06:56:59;17.33;;;10.80;;
32786;SDS011;19139;49.372;8.580;2023-09-12T06:59:26;18.67;;;11.40;;
32786;SDS011;19139;49.372;8.580;2023-09-12T07:01:53;13.60;;;9.90;;
32786;SDS011;19139;49.372;8.580;2023-09-12T07:04:19;13.43;;;10.87;;
32786;SDS011;19139;49.372;8.580;2023-09-12T07:06:46;14.37;;;8.83;;
32786;SDS011;19139;49.372;8.580;2023-09-12T07:09:13;11.63;;;9.80;;
32786;SDS011;19139;49.372;8.580;2023-09-12T07:11:41;14.77;;;10.13;;
32786;SDS011;19139;49.372;8.580;2023-09-12T07:14:08;16.13;;;8.90;;
32786;SDS011;19139;49.372;8.580;2023-09-12T07:16:36;11.30;;;8.80;;
32786;SDS011;19139;49.372;8.580;2023-09-12T07:19:03;12.77;;;8.20;;
32786;SDS011;19139;49.372;8.580;2023-09-12T07:21:30;16.50;;;9.33;;
32786;SDS011;19139;49.372;8.580;2023-09-12T07:23:58;13.00;;;8.23;;
32786;SDS011;19139;49.372;8.580;2023-09-12T07:26:25;13.53;;;8.40;;
32786;SDS011;19139;49.372;8.580;2023-09-12T07:28:53;13.33;;;8.57;;
32786;SDS011;19139;49.372;8.580;2023-09-12T07:31:20;12.77;;;8.73;;
32786;SDS011;19139;49.372;8.580;2023-09-12T07:33:47;9.63;;;7.70;;
32786;SDS011;19139;49.372;8.580;2023-09-12T07:36:14;12.70;;;8.80;;
32786;SDS011;19139;49.372;8.580;2023-09-12T07:38:41;11.63;;;8.73;;
32786;SDS011;19139;49.372;8.580;2023-09-12T07:41:08;10.63;;;8.20;;
32786;SDS011;19139;49.372;8.580;2023-09-12T07:43:35;16.23;;;9.23;;
32786;SDS011;19139;49.372;8.580;2023-09-12T07:46:02;10.43;;;8.40;;
32786;SDS011;19139;49.372;8.580;2023-09-12T07:48:29;12.43;;;9.43;;
32786;SDS011;19139;49.372;8.580;2023-09-12T07:50:56;13.60;;;9.07;;
32786;SDS011;19139;49.372;8.580;2023-09-12T07:53:22;11.10;;;9.37;;
32786;SDS011;19139;49.372;8.580;2023-09-12T07:55:49;13.43;;;10.13;;
32786;SDS011;19139;49.372;8.580;2023-09-12T07:58:17;13.33;;;9.70;;
32786;SDS011;19139;49.372;8.580;2023-09-12T08:00:50;11.97;;;9.13;;
32786;SDS011;19139;49.372;8.580;2023-09-12T08:03:17;11.27;;;9.70;;
32786;SDS011;19139;49.372;8.580;2023-09-12T08:05:44;12.77;;;10.03;;
32786;SDS011;19139;49.372;8.580;2023-09-12T08:08:21;12.87;;;10.37;;
32786;SDS011;19139;49.372;8.580;2023-09-12T08:10:47;14.13;;;11.63;;
32786;SDS011;19139;49.372;8.580;2023-09-12T08:13:14;14.23;;;10.70;;
32786;SDS011;19139;49.372;8.580;2023-09-12T08:15:41;11.70;;;10.30;;
32786;SDS011;19139;49.372;8.580;2023-09-12T08:18:08;15.80;;;10.40;;
32786;SDS011;19139;49.372;8.580;2023-09-12T08:20:34;11.33;;;10.13;;
32786;SDS011;19139;49.372;8.580;2023-09-12T08:23:01;12.73;;;10.30;;
32786;SDS011;19139;49.372;8.580;2023-09-12T08:25:28;12.43;;;9.93;;
32786;SDS011;19139;49.372;8.580;2023-09-12T08:27:55;13.90;;;10.07;;
32786;SDS011;19139;49.372;8.580;2023-09-12T08:30:21;12.77;;;10.50;;
32786;SDS011;19139;49.372;8.580;2023-09-12T08:32:48;10.77;;;9.70;;
32786;SDS011;19139;49.372;8.580;2023-09-12T08:35:15;12.40;;;9.57;;
32786;SDS011;19139;49.372;8.580;2023-09-12T08:37:42;12.50;;;10.27;;
32786;SDS011;19139;49.372;8.580;2023-09-12T08:40:10;15.03;;;9.47;;
32786;SDS011;19139;49.372;8.580;2023-09-12T08:42:38;12.17;;;8.73;;
32786;SDS011;19139;49.372;8.580;2023-09-12T08:45:11;10.60;;;9.50;;
32786;SDS011;19139;49.372;8.580;2023-09-12T08:47:42;11.23;;;9.20;;
32786;SDS011;19139;49.372;8.580;2023-09-12T08:50:20;13.47;;;9.77;;
32786;SDS011;19139;49.372;8.580;2023-09-12T08:52:49;11.03;;;9.70;;
32786;SDS011;19139;49.372;8.580;2023-09-12T08:55:33;10.90;;;9.80;;
32786;SDS011;19139;49.372;8.580;2023-09-12T08:58:02;11.63;;;9.47;;
32786;SDS011;19139;49.372;8.580;2023-09-12T09:00:29;13.83;;;10.73;;
32786;SDS011;19139;49.372;8.580;2023-09-12T09:02:56;13.77;;;8.90;;
32786;SDS011;19139;49.372;8.580;2023-09-12T09:05:24;10.60;;;9.27;;
32786;SDS011;19139;49.372;8.580;2023-09-12T09:07:53;15.53;;;10.63;;
32786;SDS011;19139;49.372;8.580;2023-09-12T09:10:22;10.93;;;9.63;;
32786;SDS011;19139;49.372;8.580;2023-09-12T09:13:09;14.57;;;9.80;;
32786;SDS011;19139;49.372;8.580;2023-09-12T09:15:36;10.83;;;9.77;;
32786;SDS011;19139;49.372;8.580;2023-09-12T09:18:08;15.60;;;10.97;;
32786;SDS011;19139;49.372;8.580;2023-09-12T09:20:37;14.07;;;10.93;;
32786;SDS011;19139;49.372;8.580;2023-09-12T09:23:05;12.13;;;10.37;;
32786;SDS011;19139;49.372;8.580;2023-09-12T09:25:41;16.23;;;10.93;;
32786;SDS011;19139;49.372;8.580;2023-09-12T09:28:19;13.00;;;9.70;;
32786;SDS011;19139;49.372;8.580;2023-09-12T09:30:47;14.27;;;10.93;;
32786;SDS011;19139;49.372;8.580;2023-09-12T09:33:17;15.53;;;10.60;;
32786;SDS011;19139;49.372;8.580;2023-09-12T09:35:47;15.53;;;11.00;;
32786;SDS011;19139;49.372;8.580;2023-09-12T09:38:15;12.17;;;10.60;;
32786;SDS011;19139;49.372;8.580;2023-09-12T09:40:47;13.27;;;10.53;;
32786;SDS011;19139;49.372;8.580;2023-09-12T09:43:18;11.13;;;9.83;;
32786;SDS011;19139;49.372;8.580;2023-09-12T09:45:48;11.70;;;10.00;;
32786;SDS011;19139;49.372;8.580;2023-09-12T09:50:49;11.23;;;9.90;;
32786;SDS011;19139;49.372;8.580;2023-09-12T09:53:20;11.10;;;9.93;;
32786;SDS011;19139;49.372;8.580;2023-09-12T09:56:11;13.40;;;9.90;;
32786;SDS011;19139;49.372;8.580;2023-09-12T09:58:46;11.67;;;9.20;;
32786;SDS011;19139;49.372;8.580;2023-09-12T10:01:19;11.40;;;10.17;;
32786;SDS011;19139;49.372;8.580;2023-09-12T10:03:48;12.07;;;10.40;;
32786;SDS011;19139;49.372;8.580;2023-09-12T10:06:16;11.47;;;10.20;;
32786;SDS011;19139;49.372;8.580;2023-09-12T10:08:45;12.83;;;9.70;;
32786;SDS011;19139;49.372;8.580;2023-09-12T10:11:16;13.80;;;10.43;;
32786;SDS011;19139;49.372;8.580;2023-09-12T10:13:54;10.33;;;9.33;;
32786;SDS011;19139;49.372;8.580;2023-09-12T10:16:23;11.47;;;10.40;;
32786;SDS011;19139;49.372;8.580;2023-09-12T10:18:58;11.43;;;10.23;;
32786;SDS011;19139;49.372;8.580;2023-09-12T10:21:37;10.00;;;9.00;;
32786;SDS011;19139;49.372;8.580;2023-09-12T10:24:17;10.93;;;9.03;;
32786;SDS011;19139;49.372;8.580;2023-09-12T10:26:48;10.87;;;9.70;;
32786;SDS011;19139;49.372;8.580;2023-09-12T10:29:16;10.57;;;9.47;;
32786;SDS011;19139;49.372;8.580;2023-09-12T10:31:43;9.50;;;8.60;;
32786;SDS011;19139;49.372;8.580;2023-09-12T10:34:11;9.83;;;8.70;;
32786;SDS011;19139;49.372;8.580;2023-09-12T10:36:44;10.47;;;9.33;;
32786;SDS011;19139;49.372;8.580;2023-09-12T10:39:12;9.47;;;8.53;;
32786;SDS011;19139;49.372;8.580;2023-09-12T10:41:41;10.27;;;8.87;;
32786;SDS011;19139;49.372;8.580;2023-09-12T10:44:11;9.80;;;8.80;;
32786;SDS011;19139;49.372;8.580;2023-09-12T10:46:42;11.13;;;9.87;;
32786;SDS011;19139;49.372;8.580;2023-09-12T10:49:11;10.17;;;9.23;;
32786;SDS011;19139;49.372;8.580;2023-09-12T10:51:40;12.30;;;9.97;;
32786;SDS011;19139;49.372;8.580;2023-09-12T10:54:08;11.53;;;9.63;;
32786;SDS011;19139;49.372;8.580;2023-09-12T10:56:38;11.00;;;10.00;;
32786;SDS011;19139;49.372;8.580;2023-09-12T11:01:42;11.10;;;8.73;;
32786;SDS011;19139;49.372;8.580;2023-09-12T11:06:47;10.07;;;9.20;;
32786;SDS011;19139;49.372;8.580;2023-09-12T11:11:41;11.23;;;9.57;;
32786;SDS011;19139;49.372;8.580;2023-09-12T11:14:20;9.40;;;8.43;;
32786;SDS011;19139;49.372;8.580;2023-09-12T11:19:48;10.53;;;9.53;;
32786;SDS011;19139;49.372;8.580;2023-09-12T11:22:29;9.40;;;8.43;;
32786;SDS011;19139;49.372;8.580;2023-09-12T11:25:01;9.50;;;8.60;;
32786;SDS011;19139;49.372;8.580;2023-09-12T11:27:32;10.33;;;9.43;;
32786;SDS011;19139;49.372;8.580;2023-09-12T11:30:31;9.53;;;8.63;;
32786;SDS011;19139;49.372;8.580;2023-09-12T11:32:58;10.13;;;8.80;;
32786;SDS011;19139;49.372;8.580;2023-09-12T11:35:29;10.53;;;9.40;;
32786;SDS011;19139;49.372;8.580;2023-09-12T11:37:56;10.77;;;9.10;;
32786;SDS011;19139;49.372;8.580;2023-09-12T11:40:25;12.50;;;9.63;;
32786;SDS011;19139;49.372;8.580;2023-09-12T11:43:09;9.53;;;8.63;;
32786;SDS011;19139;49.372;8.580;2023-09-12T11:45:54;9.27;;;8.47;;
32786;SDS011;19139;49.372;8.580;2023-09-12T11:48:22;10.83;;;8.20;;
32786;SDS011;19139;49.372;8.580;2023-09-12T11:50:56;9.83;;;8.97;;
32786;SDS011;19139;49.372;8.580;2023-09-12T11:53:24;9.43;;;8.53;;
32786;SDS011;19139;49.372;8.580;2023-09-12T11:55:53;9.90;;;9.10;;
32786;SDS011;19139;49.372;8.580;2023-09-12T11:58:23;9.97;;;9.07;;
32786;SDS011;19139;49.372;8.580;2023-09-12T12:00:54;9.87;;;8.90;;
32786;SDS011;19139;49.372;8.580;2023-09-12T12:03:22;9.77;;;8.87;;
32786;SDS011;19139;49.372;8.580;2023-09-12T12:05:51;9.63;;;8.83;;
32786;SDS011;19139;49.372;8.580;2023-09-12T12:08:19;9.33;;;8.47;;
32786;SDS011;19139;49.372;8.580;2023-09-12T12:10:57;8.93;;;8.13;;
32786;SDS011;19139;49.372;8.580;2023-09-12T12:13:25;8.53;;;7.73;;
32786;SDS011;19139;49.372;8.580;2023-09-12T12:15:52;9.40;;;8.60;;
32786;SDS011;19139;49.372;8.580;2023-09-12T12:18:19;9.43;;;8.60;;
32786;SDS011;19139;49.372;8.580;2023-09-12T12:20:46;9.40;;;8.60;;
32786;SDS011;19139;49.372;8.580;2023-09-12T12:23:13;9.63;;;8.73;;
32786;SDS011;19139;49.372;8.580;2023-09-12T12:25:39;8.77;;;7.90;;
32786;SDS011;19139;49.372;8.580;2023-09-12T12:28:06;9.23;;;8.33;;
32786;SDS011;19139;49.372;8.580;2023-09-12T12:30:33;9.80;;;8.80;;
32786;SDS011;19139;49.372;8.580;2023-09-12T12:33:06;10.07;;;8.90;;
32786;SDS011;19139;49.372;8.580;2023-09-12T12:35:59;10.03;;;9.13;;
32786;SDS011;19139;49.372;8.580;2023-09-12T12:38:36;10.13;;;9.17;;
32786;SDS011;19139;49.372;8.580;2023-09-12T12:41:16;8.77;;;7.97;;
32786;SDS011;19139;49.372;8.580;2023-09-12T12:43:49;9.10;;;8.03;;
32786;SDS011;19139;49.372;8.580;2023-09-12T12:46:20;8.93;;;8.13;;
32786;SDS011;19139;49.372;8.580;2023-09-12T12:48:48;9.33;;;8.43;;
32786;SDS011;19139;49.372;8.580;2023-09-12T12:51:19;9.33;;;8.13;;
32786;SDS011;19139;49.372;8.580;2023-09-12T12:53:46;9.03;;;8.23;;
32786;SDS011;19139;49.372;8.580;2023-09-12T12:56:22;8.87;;;7.97;;
32786;SDS011;19139;49.372;8.580;2023-09-12T12:58:51;9.17;;;8.27;;
32786;SDS011;19139;49.372;8.580;2023-09-12T13:01:23;10.03;;;8.33;;
32786;SDS011;19139;49.372;8.580;2023-09-12T13:03:50;9.20;;;8.30;;
32786;SDS011;19139;49.372;8.580;2023-09-12T13:06:17;9.30;;;8.50;;
32786;SDS011;19139;49.372;8.580;2023-09-12T13:08:45;8.93;;;8.10;;
32786;SDS011;19139;49.372;8.580;2023-09-12T13:11:13;9.13;;;8.07;;
32786;SDS011;19139;49.372;8.580;2023-09-12T13:13:43;11.40;;;9.33;;
32786;SDS011;19139;49.372;8.580;2023-09-12T13:16:13;9.17;;;8.27;;
32786;SDS011;19139;49.372;8.580;2023-09-12T13:18:40;8.73;;;8.00;;
32786;SDS011;19139;49.372;8.580;2023-09-12T13:21:08;8.87;;;7.97;;
32786;SDS011;19139;49.372;8.580;2023-09-12T13:23:38;9.87;;;8.73;;
32786;SDS011;19139;49.372;8.580;2023-09-12T13:26:07;11.87;;;8.90;;
32786;SDS011;19139;49.372;8.580;2023-09-12T13:28:34;9.27;;;8.47;;
32786;SDS011;19139;49.372;8.580;2023-09-12T13:31:01;8.97;;;8.17;;
32786;SDS011;19139;49.372;8.580;2023-09-12T13:33:29;9.23;;;8.33;;
32786;SDS011;19139;49.372;8.580;2023-09-12T13:35:56;10.03;;;9.07;;
32786;SDS011;19139;49.372;8.580;2023-09-12T13:38:23;9.73;;;8.73;;
32786;SDS011;19139;49.372;8.580;2023-09-12T13:40:49;8.87;;;8.07;;
32786;SDS011;19139;49.372;8.580;2023-09-12T13:43:16;9.80;;;8.30;;
32786;SDS011;19139;49.372;8.580;2023-09-12T13:45:44;9.47;;;8.43;;
32786;SDS011;19139;49.372;8.580;2023-09-12T13:48:11;8.90;;;8.03;;
32786;SDS011;19139;49.372;8.580;2023-09-12T13:50:38;8.23;;;7.30;;
32786;SDS011;19139;49.372;8.580;2023-09-12T13:53:05;12.70;;;8.80;;
32786;SDS011;19139;49.372;8.580;2023-09-12T13:55:33;9.83;;;8.27;;
32786;SDS011;19139;49.372;8.580;2023-09-12T13:58:14;8.03;;;7.23;;
32786;SDS011;19139;49.372;8.580;2023-09-12T14:00:41;9.33;;;8.50;;
32786;SDS011;19139;49.372;8.580;2023-09-12T14:03:08;8.47;;;7.57;;
32786;SDS011;19139;49.372;8.580;2023-09-12T14:05:35;10.30;;;8.00;;
32786;SDS011;19139;49.372;8.580;2023-09-12T14:08:03;9.23;;;8.30;;
32786;SDS011;19139;49.372;8.580;2023-09-12T14:10:30;12.40;;;7.93;;
32786;SDS011;19139;49.372;8.580;2023-09-12T14:13:03;8.57;;;7.67;;
32786;SDS011;19139;49.372;8.580;2023-09-12T14:15:33;9.20;;;8.27;;
32786;SDS011;19139;49.372;8.580;2023-09-12T14:18:00;8.27;;;7.47;;
32786;SDS011;19139;49.372;8.580;2023-09-12T14:20:28;9.17;;;8.07;;
32786;SDS011;19139;49.372;8.580;2023-09-12T14:22:56;8.37;;;7.63;;
32786;SDS011;19139;49.372;8.580;2023-09-12T14:25:24;8.80;;;7.67;;
32786;SDS011;19139;49.372;8.580;2023-09-12T14:27:53;8.43;;;7.63;;
32786;SDS011;19139;49.372;8.580;2023-09-12T14:30:19;9.90;;;7.60;;
32786;SDS011;19139;49.372;8.580;2023-09-12T14:32:48;9.40;;;8.37;;
32786;SDS011;19139;49.372;8.580;2023-09-12T14:35:15;8.60;;;7.70;;
32786;SDS011;19139;49.372;8.580;2023-09-12T14:37:42;9.13;;;7.67;;
32786;SDS011;19139;49.372;8.580;2023-09-12T14:40:09;11.60;;;8.23;;
32786;SDS011;19139;49.372;8.580;2023-09-12T14:42:37;8.40;;;7.60;;
32786;SDS011;19139;49.372;8.580;2023-09-12T14:45:04;8.23;;;7.50;;
32786;SDS011;19139;49.372;8.580;2023-09-12T14:47:32;8.60;;;7.47;;
32786;SDS011;19139;49.372;8.580;2023-09-12T14:49:59;8.43;;;7.63;;
32786;SDS011;19139;49.372;8.580;2023-09-12T14:52:26;8.43;;;7.60;;
32786;SDS011;19139;49.372;8.580;2023-09-12T14:54:56;8.20;;;6.97;;
32786;SDS011;19139;49.372;8.580;2023-09-12T14:57:24;10.33;;;8.10;;
32786;SDS011;19139;49.372;8.580;2023-09-12T14:59:54;8.27;;;7.47;;
32786;SDS011;19139;49.372;8.580;2023-09-12T15:02:25;10.57;;;8.13;;
32786;SDS011;19139;49.372;8.580;2023-09-12T15:04:58;7.40;;;6.73;;